Tulsa, OK (74106)

4:57 AM CDT on April 23, 2017 (GMT -0500)
Pine and Lewis RCG | | Change Station
Active Advisory: Flood Warning

Elev 653 ft 36.18 °N, 95.96 °W | Updated 9 seconds ago

Clear
Clear
41.4 °F
Feels Like 41 °F
N
0.0
Wind Variable Wind from South

Today
High -- | Low -- °F
--% Chance of Precip.
Yesterday
High -- | Low -- °F
Precip. -- in
Pressure 30.13 in
Visibility 10.0 miles
Clouds Clear
Windchill 41 °F
Dew Point 41 °F
Humidity 99%
Rainfall 0.00 in
Snow Depth Not available.
6:39 AM 8:04 PM
Waning Crescent, 13% visible
METAR KTUL 230953Z 33006KT 10SM CLR 06/05 A3013 RMK AO2 SLP203 T00610050
Pressure 30.13 in
Visibility 10.0 miles
Clouds Clear
Windchill 41 °F
Dew Point 41 °F
Humidity 99%
Rainfall 0.00 in
Snow Depth Not available.
6:39 AM 8:04 PM
Waning Crescent, 13% visible
METAR KTUL 230953Z 33006KT 10SM CLR 06/05 A3013 RMK AO2 SLP203 T00610050

Get Your Daily Forecast Email!

Thanks for signing up!

Be on the lookout for a verification email in your inbox.

You'll start receiving severe weather alerts in your inbox..

×

10-Day Weather Forecast

Almanac

Astronomy

Apr. 23, 2017 Rise Set
Actual Time
Civil Twilight
Nautical Twilight
Astronomical Twilight
Moon
Length of Visible Light
Length of Day
Tomorrow will be .
, % of the Moon is Illuminated

Today's Extremes

State Highs State Lows

Community

WunderPhotos

WunderBlog® & News

Nearby

Air Quality

  Air Quality AQ Index Pollutant
Not available.

Snow Depth

Station Depth Elevation

Earthquake Activity

City Distance Mag. Time & Date
Minimum magnitude displayed is 2.5.

Coastal Water Temperatures

Place Temperature

Stations

Nearby Weather Stations

Station Location Temp. Windchill Dew Point Humidity Wind Precip. Elev Updated Type
                   

Watches & Warnings

Flood Warning
Issued: 8:41 PM CDT Apr. 22, 2017 – National Weather Service

The Flood Warning continues for
the Caney river near Collinsville.
* Until Sunday evening, or until the warning is cancelled.
* At 7:30 PM Saturday, the stage was 27.33 feet.
* Flood stage is 26.0 feet.
* Minor flooding is occurring and minor flooding is forecast.
* Forecast... the Caney river near Collinsville will continue rising
to near 27.9 feet Sunday before dawn. The river is expected to fall
below flood stage early Sunday afternoon.
* Impact... at 28.0 feet, minor agricultural flooding occurs. County
roads north of Collinsville become impassable.


Lat... Lon 3643 9580 3636 9564 3630 9570 3635 9588